createdAt,value
2018-05-09T00:02:20.634Z,100347.67
2018-05-09T00:04:48.754Z,100344.14
2018-05-09T00:07:16.884Z,100344.97
2018-05-09T00:09:44.993Z,100343.56
2018-05-09T00:12:13.135Z,100344.55
2018-05-09T00:14:41.265Z,100335.06
2018-05-09T00:17:09.377Z,100340.27
2018-05-09T00:19:37.474Z,100337.91
2018-05-09T00:22:05.627Z,100341.81
2018-05-09T00:24:33.755Z,100344.97
2018-05-09T00:27:01.889Z,100340.75
2018-05-09T00:29:30.014Z,100341.52
2018-05-09T00:31:58.112Z,100341.77
2018-05-09T00:34:26.247Z,100341.34
2018-05-09T00:36:54.373Z,100340.09
2018-05-09T00:39:22.511Z,100331.87
2018-05-09T00:41:50.745Z,100337.91
2018-05-09T00:44:18.800Z,100340.91
2018-05-09T00:46:46.910Z,100332.27
2018-05-09T00:49:15.224Z,100328.45
2018-05-09T00:51:43.337Z,100321.61
2018-05-09T00:54:23.347Z,100318.80
2018-05-09T00:56:51.458Z,100322.13
2018-05-09T00:59:20.089Z,100324.94
2018-05-09T01:01:48.190Z,100326.62
2018-05-09T01:04:16.314Z,100326.63
2018-05-09T01:06:44.438Z,100327.58
2018-05-09T01:09:12.531Z,100324.38
2018-05-09T01:11:41.248Z,100322.63
2018-05-09T01:14:09.361Z,100318.53
2018-05-09T01:16:37.569Z,100320.12
2018-05-09T01:19:05.792Z,100321.87
2018-05-09T01:21:33.945Z,100320.90
2018-05-09T01:24:02.053Z,100318.58
2018-05-09T01:26:30.188Z,100315.97
2018-05-09T01:28:58.297Z,100314.02
2018-05-09T01:31:26.446Z,100320.59
2018-05-09T01:33:54.601Z,100319.78
2018-05-09T01:36:22.705Z,100321.50
2018-05-09T01:38:50.911Z,100316.66
2018-05-09T01:41:19.090Z,100313.70
2018-05-09T01:43:50.859Z,100308.34
2018-05-09T01:46:18.978Z,100310.22
2018-05-09T01:48:47.074Z,100311.31
2018-05-09T01:51:15.196Z,100311.69
2018-05-09T01:53:43.321Z,100312.95
2018-05-09T01:56:11.456Z,100310.48
2018-05-09T01:58:39.594Z,100314.14
2018-05-09T02:01:07.697Z,100316.25
2018-05-09T02:03:35.858Z,100317.91
2018-05-09T02:06:04.064Z,100324.06
2018-05-09T02:08:32.127Z,100324.61
2018-05-09T02:11:00.252Z,100318.54
2018-05-09T02:13:28.388Z,100319.29
2018-05-09T02:15:56.549Z,100321.91
2018-05-09T02:18:24.672Z,100324.77
2018-05-09T02:20:52.803Z,100325.86
2018-05-09T02:23:21.134Z,100327.64
2018-05-09T02:25:52.984Z,100319.92
2018-05-09T02:28:21.096Z,100319.52
2018-05-09T02:30:49.225Z,100310.02
2018-05-09T02:33:17.323Z,100314.08
2018-05-09T02:35:47.352Z,100309.97
2018-05-09T02:38:15.489Z,100311.20
2018-05-09T02:40:43.608Z,100318.96
2018-05-09T02:43:11.721Z,100312.90
2018-05-09T02:45:39.846Z,100308.53
2018-05-09T02:48:07.977Z,100311.25
2018-05-09T02:50:36.097Z,100307.47
2018-05-09T02:53:04.232Z,100310.48
2018-05-09T02:55:32.480Z,100313.73
2018-05-09T02:58:00.597Z,100312.03
2018-05-09T03:00:28.744Z,100315.16
2018-05-09T03:02:56.852Z,100313.67
2018-05-09T03:05:24.974Z,100315.61
2018-05-09T03:07:53.116Z,100325.53
2018-05-09T03:10:21.226Z,100327.70
2018-05-09T03:12:49.351Z,100329.50
2018-05-09T03:15:17.474Z,100325.95
2018-05-09T03:17:45.625Z,100325.58
2018-05-09T03:20:13.768Z,100329.67
2018-05-09T03:22:41.877Z,100333.06
2018-05-09T03:25:10.002Z,100336.18
2018-05-09T03:27:41.198Z,100338.77
2018-05-09T03:30:09.840Z,100337.41
2018-05-09T03:32:38.000Z,100340.28
2018-05-09T03:35:06.117Z,100347.39
2018-05-09T03:37:34.298Z,100346.14
2018-05-09T03:40:02.405Z,100343.19
2018-05-09T03:42:30.513Z,100336.79
2018-05-09T03:44:58.633Z,100337.08
2018-05-09T03:47:26.765Z,100342.80
2018-05-09T03:49:54.888Z,100348.75
2018-05-09T03:52:23.013Z,100344.81
2018-05-09T03:54:51.172Z,100349.17
2018-05-09T03:57:19.296Z,100343.70
2018-05-09T03:59:47.436Z,100352.45
2018-05-09T04:02:27.391Z,100350.51
2018-05-09T04:05:07.285Z,100355.42
2018-05-09T04:07:47.196Z,100352.56
2018-05-09T04:10:15.299Z,100355.00
2018-05-09T04:12:43.412Z,100356.22
2018-05-09T04:15:11.569Z,100353.36
2018-05-09T04:17:39.719Z,100359.36
2018-05-09T04:20:07.817Z,100354.75
2018-05-09T04:22:35.972Z,100357.58
2018-05-09T04:25:04.123Z,100361.52
2018-05-09T04:27:32.245Z,100363.68
2018-05-09T04:30:04.232Z,100359.75
2018-05-09T04:32:32.565Z,100362.74
2018-05-09T04:35:00.680Z,100352.81
2018-05-09T04:37:28.816Z,100360.75
2018-05-09T04:39:56.910Z,100360.19
2018-05-09T04:42:25.045Z,100359.08
2018-05-09T04:44:53.186Z,100360.02
2018-05-09T04:47:21.287Z,100359.77
2018-05-09T04:49:49.428Z,100364.41
2018-05-09T04:52:17.537Z,100363.84
2018-05-09T04:54:45.651Z,100371.19
2018-05-09T04:57:13.767Z,100368.61
2018-05-09T04:59:41.907Z,100369.27
2018-05-09T05:02:10.032Z,100373.48
2018-05-09T05:04:38.190Z,100373.23
2018-05-09T05:07:06.281Z,100378.91
2018-05-09T05:09:34.430Z,100387.48
2018-05-09T05:12:02.755Z,100390.61
2018-05-09T05:14:30.895Z,100390.59
2018-05-09T05:16:59.022Z,100390.45
2018-05-09T05:19:27.535Z,100394.80
2018-05-09T05:21:55.676Z,100392.59
2018-05-09T05:24:23.824Z,100387.41
2018-05-09T05:26:51.970Z,100387.11
2018-05-09T05:29:20.348Z,100388.33
2018-05-09T05:31:48.494Z,100386.28
2018-05-09T05:34:16.617Z,100384.91
2018-05-09T05:36:44.757Z,100385.83
2018-05-09T05:39:12.859Z,100385.83
2018-05-09T05:41:41.085Z,100385.55
2018-05-09T05:44:09.201Z,100388.49
2018-05-09T05:46:37.328Z,100385.78
2018-05-09T05:49:05.465Z,100387.38
2018-05-09T05:51:33.593Z,100386.12
2018-05-09T05:54:01.712Z,100387.72
2018-05-09T05:56:36.031Z,100388.37
2018-05-09T05:59:04.157Z,100393.17
2018-05-09T06:01:32.300Z,100390.29
2018-05-09T06:04:00.408Z,100390.39
2018-05-09T06:06:28.599Z,100392.92
2018-05-09T06:08:56.673Z,100392.22
2018-05-09T06:11:24.796Z,100390.84
2018-05-09T06:13:52.913Z,100395.02
2018-05-09T06:16:21.047Z,100388.03
2018-05-09T06:18:49.184Z,100389.48
2018-05-09T06:21:17.302Z,100393.95
2018-05-09T06:23:45.443Z,100392.48
2018-05-09T06:26:13.580Z,100399.41
2018-05-09T06:28:41.697Z,100394.15
2018-05-09T06:31:09.817Z,100396.41
2018-05-09T06:33:37.945Z,100398.55
2018-05-09T06:36:06.126Z,100395.11
2018-05-09T06:38:34.338Z,100386.59
2018-05-09T06:41:02.549Z,100391.32
2018-05-09T06:43:30.739Z,100394.92
2018-05-09T06:45:58.865Z,100394.70
2018-05-09T06:48:26.988Z,100397.41
2018-05-09T06:50:55.090Z,100394.74
2018-05-09T06:53:23.246Z,100398.80
2018-05-09T06:55:51.362Z,100402.69
2018-05-09T06:58:19.482Z,100401.47
2018-05-09T07:00:47.597Z,100398.27
2018-05-09T07:03:15.706Z,100396.97
2018-05-09T07:05:43.848Z,100401.92
2018-05-09T07:08:11.966Z,100404.36
2018-05-09T07:10:40.098Z,100412.97
2018-05-09T07:13:08.226Z,100408.45
2018-05-09T07:15:36.339Z,100410.44
2018-05-09T07:18:04.461Z,100414.31
2018-05-09T07:20:32.590Z,100417.36
2018-05-09T07:23:00.692Z,100411.80
2018-05-09T07:25:28.832Z,100422.95
2018-05-09T07:27:56.949Z,100420.98
2018-05-09T07:30:25.066Z,100418.67
2018-05-09T07:32:53.189Z,100416.42
2018-05-09T07:35:21.330Z,100410.20
2018-05-09T07:37:49.433Z,100404.27
2018-05-09T07:40:17.576Z,100404.84
2018-05-09T07:42:45.680Z,100399.09
2018-05-09T07:45:13.778Z,100401.17
2018-05-09T07:47:42.008Z,100403.85
2018-05-09T07:50:10.038Z,100407.30
2018-05-09T07:52:38.157Z,100403.48
2018-05-09T07:55:06.278Z,100404.52
2018-05-09T07:57:34.807Z,100401.78
2018-05-09T08:00:02.960Z,100403.69
2018-05-09T08:02:31.144Z,100404.62
2018-05-09T08:04:59.261Z,100405.47
2018-05-09T08:07:27.381Z,100398.48
2018-05-09T08:09:55.495Z,100401.99
2018-05-09T08:12:23.625Z,100395.31
2018-05-09T08:14:51.741Z,100401.05
2018-05-09T08:17:19.850Z,100400.18
2018-05-09T08:19:47.984Z,100400.45
2018-05-09T08:22:16.116Z,100402.54
2018-05-09T08:24:44.222Z,100407.77
2018-05-09T08:27:12.390Z,100406.73
2018-05-09T08:29:40.521Z,100407.12
2018-05-09T08:32:08.637Z,100410.61
2018-05-09T08:34:36.760Z,100413.89
2018-05-09T08:37:04.896Z,100415.05
2018-05-09T08:39:33.009Z,100410.71
2018-05-09T08:42:01.124Z,100410.45
2018-05-09T08:44:29.223Z,100406.32
2018-05-09T08:46:57.356Z,100405.85
2018-05-09T08:49:25.539Z,100405.84
2018-05-09T08:51:53.615Z,100405.66
2018-05-09T08:54:21.738Z,100402.84
2018-05-09T08:56:49.868Z,100403.05
2018-05-09T08:59:18.116Z,100401.59
2018-05-09T09:01:46.242Z,100396.28
2018-05-09T09:04:14.375Z,100396.28
2018-05-09T09:06:42.486Z,100392.28
2018-05-09T09:09:10.593Z,100396.34
2018-05-09T09:11:38.713Z,100392.37
2018-05-09T09:14:06.833Z,100392.03
2018-05-09T09:16:34.957Z,100389.89
2018-05-09T09:19:03.071Z,100389.13
2018-05-09T09:21:31.194Z,100384.85
2018-05-09T09:23:59.308Z,100392.86
2018-05-09T09:26:27.437Z,100390.14
2018-05-09T09:28:55.561Z,100392.52
2018-05-09T09:31:23.668Z,100390.67
2018-05-09T09:33:51.789Z,100386.63
2018-05-09T09:36:19.939Z,100385.91
2018-05-09T09:38:48.043Z,100381.32
2018-05-09T09:41:16.150Z,100383.08
2018-05-09T09:43:44.364Z,100372.97
2018-05-09T09:46:12.563Z,100371.12
2018-05-09T09:48:40.744Z,100367.68
2018-05-09T09:51:08.909Z,100360.58
2018-05-09T09:53:37.092Z,100356.02
2018-05-09T09:56:05.710Z,100359.17
2018-05-09T09:58:33.876Z,100346.36
2018-05-09T10:01:02.037Z,100347.83
2018-05-09T10:03:30.218Z,100335.28
2018-05-09T10:05:58.325Z,100338.04
2018-05-09T10:08:26.457Z,100330.77
2018-05-09T10:10:54.593Z,100327.42
2018-05-09T10:13:22.729Z,100324.02
2018-05-09T10:15:50.831Z,100324.58
2018-05-09T10:18:18.975Z,100321.63
2018-05-09T10:20:47.070Z,100318.50
2018-05-09T10:23:15.186Z,100319.03
2018-05-09T10:25:43.319Z,100315.33
2018-05-09T10:28:11.445Z,100315.73
2018-05-09T10:30:39.565Z,100313.09
2018-05-09T10:33:07.682Z,100311.36
2018-05-09T10:35:35.801Z,100307.95
2018-05-09T10:38:03.945Z,100297.18
2018-05-09T10:40:32.065Z,100297.20
2018-05-09T10:43:00.182Z,100298.09
2018-05-09T10:45:28.309Z,100289.59
2018-05-09T10:47:56.406Z,100286.93
2018-05-09T10:50:24.538Z,100276.64
2018-05-09T10:52:52.650Z,100278.88
2018-05-09T10:55:20.782Z,100280.25
2018-05-09T10:57:48.922Z,100270.37
2018-05-09T11:00:17.042Z,100280.87
2018-05-09T11:02:45.149Z,100276.09
2018-05-09T11:05:13.370Z,100278.30
2018-05-09T11:07:41.935Z,100267.02
2018-05-09T11:10:13.242Z,100267.19
2018-05-09T11:12:41.450Z,100271.64
2018-05-09T11:15:09.565Z,100264.59
2018-05-09T11:17:37.781Z,100264.25
2018-05-09T11:20:05.824Z,100266.61
2018-05-09T11:22:33.928Z,100264.95
2018-05-09T11:25:02.045Z,100260.41
2018-05-09T11:27:30.154Z,100250.98
2018-05-09T11:29:58.308Z,100248.62
2018-05-09T11:32:26.429Z,100251.02
2018-05-09T11:34:54.526Z,100248.00
2018-05-09T11:37:22.722Z,100243.59
2018-05-09T11:39:50.750Z,100239.70
2018-05-09T11:42:18.885Z,100239.12
2018-05-09T11:44:47.062Z,100237.24
2018-05-09T11:47:15.136Z,100238.18
2018-05-09T11:49:43.249Z,100234.48
2018-05-09T11:52:11.387Z,100230.64
2018-05-09T11:54:39.518Z,100230.90
2018-05-09T11:57:07.643Z,100230.64
2018-05-09T11:59:35.762Z,100231.77
2018-05-09T12:02:03.916Z,100232.34
2018-05-09T12:04:32.043Z,100226.91
2018-05-09T12:07:00.172Z,100221.62
2018-05-09T12:09:28.298Z,100222.80
2018-05-09T12:11:56.417Z,100222.45
2018-05-09T12:14:24.527Z,100218.70
2018-05-09T12:16:52.654Z,100224.20
2018-05-09T12:19:20.864Z,100218.11
2018-05-09T12:21:48.985Z,100217.84
2018-05-09T12:24:20.236Z,100214.48
2018-05-09T12:26:48.345Z,100214.06
2018-05-09T12:29:16.473Z,100207.16
2018-05-09T12:31:44.604Z,100206.95
2018-05-09T12:34:12.729Z,100198.05
2018-05-09T12:36:40.849Z,100197.48
2018-05-09T12:39:08.987Z,100203.80
2018-05-09T12:41:37.098Z,100189.40
2018-05-09T12:44:05.328Z,100192.80
2018-05-09T12:46:33.594Z,100196.14
2018-05-09T12:49:01.735Z,100186.34
2018-05-09T12:51:29.844Z,100187.67
2018-05-09T12:53:57.977Z,100177.88
2018-05-09T12:56:26.116Z,100179.16
2018-05-09T12:58:54.228Z,100176.51
2018-05-09T13:01:22.351Z,100170.48
2018-05-09T13:03:50.455Z,100162.06
2018-05-09T13:06:18.577Z,100162.36
2018-05-09T13:08:46.704Z,100154.30
2018-05-09T13:11:14.812Z,100152.94
2018-05-09T13:13:46.504Z,100154.48
2018-05-09T13:16:14.623Z,100157.28
2018-05-09T13:18:42.758Z,100149.92
2018-05-09T13:21:10.886Z,100154.86
2018-05-09T13:23:38.986Z,100147.39
2018-05-09T13:26:07.117Z,100145.59
2018-05-09T13:28:35.233Z,100145.54
2018-05-09T13:31:03.356Z,100145.89
2018-05-09T13:33:31.493Z,100142.30
2018-05-09T13:35:59.609Z,100137.70
2018-05-09T13:38:27.708Z,100135.69
2018-05-09T13:40:55.815Z,100137.37
2018-05-09T13:43:24.830Z,100137.25
2018-05-09T13:45:52.954Z,100124.36
2018-05-09T13:48:21.050Z,100123.04
2018-05-09T13:50:49.173Z,100127.83
2018-05-09T13:53:17.296Z,100124.13
2018-05-09T13:55:45.426Z,100118.70
2018-05-09T13:58:13.538Z,100112.91
2018-05-09T14:00:41.660Z,100113.20
2018-05-09T14:03:09.798Z,100113.70
2018-05-09T14:05:37.928Z,100115.33
2018-05-09T14:08:06.055Z,100116.31
2018-05-09T14:10:34.173Z,100104.69
2018-05-09T14:13:02.319Z,100113.85
2018-05-09T14:15:30.482Z,100110.94
2018-05-09T14:17:58.569Z,100101.87
2018-05-09T14:20:26.704Z,100100.24
2018-05-09T14:22:54.833Z,100097.05
2018-05-09T14:25:22.956Z,100097.70
2018-05-09T14:27:51.062Z,100089.06
2018-05-09T14:30:19.166Z,100088.28
2018-05-09T14:32:47.311Z,100086.11
2018-05-09T14:35:15.501Z,100085.41
2018-05-09T14:37:43.591Z,100084.66
2018-05-09T14:40:11.713Z,100082.43
2018-05-09T14:42:39.815Z,100071.47
2018-05-09T14:45:07.934Z,100068.89
2018-05-09T14:47:36.073Z,100072.56
2018-05-09T14:50:04.186Z,100066.00
2018-05-09T14:52:32.316Z,100063.06
2018-05-09T14:55:00.427Z,100069.77
2018-05-09T14:57:28.560Z,100062.56
2018-05-09T14:59:57.091Z,100059.80
2018-05-09T15:02:25.244Z,100061.63
2018-05-09T15:04:53.383Z,100056.05
2018-05-09T15:07:21.589Z,100064.56
2018-05-09T15:09:49.731Z,100052.48
2018-05-09T15:12:17.844Z,100061.63
2018-05-09T15:14:45.969Z,100054.58
2018-05-09T15:17:14.085Z,100055.31
2018-05-09T15:19:43.137Z,100058.33
2018-05-09T15:22:11.136Z,100061.73
2018-05-09T15:24:39.246Z,100050.69
2018-05-09T15:27:07.379Z,100054.42
2018-05-09T15:29:35.509Z,100054.76
2018-05-09T15:32:03.625Z,100048.77
2018-05-09T15:34:31.730Z,100051.16
2018-05-09T15:37:00.081Z,100052.66
2018-05-09T15:39:28.208Z,100052.19
2018-05-09T15:41:56.352Z,100055.39
2018-05-09T15:44:24.475Z,100053.50
2018-05-09T15:46:52.575Z,100050.69
2018-05-09T15:49:20.866Z,100049.49
2018-05-09T15:51:49.219Z,100047.73
2018-05-09T15:54:17.327Z,100048.34
2018-05-09T15:56:45.475Z,100053.03
2018-05-09T15:59:13.676Z,100047.19
2018-05-09T16:01:41.801Z,100038.38
2018-05-09T16:04:09.926Z,100036.45
2018-05-09T16:06:38.075Z,100040.23
2018-05-09T16:09:06.192Z,100036.53
2018-05-09T16:11:34.321Z,100035.97
2018-05-09T16:14:02.453Z,100039.25
2018-05-09T16:16:30.559Z,100033.84
2018-05-09T16:18:58.681Z,100039.44
2018-05-09T16:21:26.836Z,100036.59
2018-05-09T16:23:54.976Z,100031.19
2018-05-09T16:26:23.084Z,100031.71
2018-05-09T16:28:51.218Z,100034.18
2018-05-09T16:31:19.446Z,100037.23
2018-05-09T16:33:47.597Z,100032.58
2018-05-09T16:36:15.856Z,100029.47
2018-05-09T16:38:43.892Z,100029.58
2018-05-09T16:41:12.018Z,100035.25
2018-05-09T16:43:40.319Z,100038.17
2018-05-09T16:46:08.418Z,100038.68
2018-05-09T16:48:36.556Z,100038.86
2018-05-09T16:51:04.685Z,100039.08
2018-05-09T16:53:32.796Z,100040.58
2018-05-09T16:56:00.912Z,100038.71
2018-05-09T16:58:29.232Z,100034.38
2018-05-09T17:00:57.363Z,100039.36
2018-05-09T17:03:25.466Z,100041.05
2018-05-09T17:05:53.589Z,100034.69
2018-05-09T17:08:21.695Z,100038.17
2018-05-09T17:10:49.827Z,100038.48
2018-05-09T17:13:18.161Z,100039.02
2018-05-09T17:15:46.278Z,100037.64
2018-05-09T17:18:14.392Z,100032.98
2018-05-09T17:20:42.535Z,100034.88
2018-05-09T17:23:10.627Z,100038.52
2018-05-09T17:25:38.764Z,100036.45
2018-05-09T17:28:06.889Z,100029.19
2018-05-09T17:30:35.021Z,100029.89
2018-05-09T17:33:03.121Z,100034.80
2018-05-09T17:35:31.268Z,100031.11
2018-05-09T17:37:59.376Z,100032.71
2018-05-09T17:40:27.490Z,100028.68
2018-05-09T17:42:55.615Z,100033.24
2018-05-09T17:45:23.719Z,100030.44
2018-05-09T17:47:51.826Z,100030.17
2018-05-09T17:50:19.957Z,100032.29
2018-05-09T17:52:48.088Z,100032.64
2018-05-09T17:55:16.190Z,100034.86
2018-05-09T17:57:44.335Z,100033.09
2018-05-09T18:00:12.463Z,100030.59
2018-05-09T18:02:40.590Z,100030.06
2018-05-09T18:05:08.726Z,100030.87
2018-05-09T18:07:36.831Z,100032.17
2018-05-09T18:10:04.945Z,100031.47
2018-05-09T18:12:33.096Z,100024.78
2018-05-09T18:15:01.256Z,100026.55
2018-05-09T18:17:29.365Z,100025.90
2018-05-09T18:19:59.643Z,100026.87
2018-05-09T18:22:27.824Z,100029.80
2018-05-09T18:24:55.967Z,100032.34
2018-05-09T18:27:24.088Z,100030.16
2018-05-09T18:29:52.204Z,100023.87
2018-05-09T18:32:20.306Z,100027.83
2018-05-09T18:34:48.445Z,100028.99
2018-05-09T18:37:16.575Z,100031.50
2018-05-09T18:39:44.711Z,100024.64
2018-05-09T18:42:12.816Z,100028.43
2018-05-09T18:44:40.926Z,100025.52
2018-05-09T18:47:09.045Z,100031.27
2018-05-09T18:49:37.425Z,100032.50
2018-05-09T18:52:08.465Z,100031.43
2018-05-09T18:54:36.978Z,100033.14
2018-05-09T18:57:05.122Z,100033.84
2018-05-09T18:59:33.245Z,100033.10
2018-05-09T19:02:01.373Z,100035.84
2018-05-09T19:04:29.487Z,100041.84
2018-05-09T19:07:00.873Z,100038.38
2018-05-09T19:09:29.006Z,100037.25
2018-05-09T19:11:57.512Z,100036.42
2018-05-09T19:14:25.710Z,100037.41
2018-05-09T19:16:53.835Z,100036.49
2018-05-09T19:19:21.970Z,100038.69
2018-05-09T19:21:50.171Z,100043.46
2018-05-09T19:24:18.350Z,100049.25
2018-05-09T19:26:46.555Z,100044.25
2018-05-09T19:29:14.837Z,100044.81
2018-05-09T19:31:42.995Z,100046.98
2018-05-09T19:34:14.548Z,100049.23
2018-05-09T19:36:42.686Z,100053.50
2018-05-09T19:39:10.821Z,100055.33
2018-05-09T19:41:39.173Z,100067.30
2018-05-09T19:44:07.091Z,100070.38
2018-05-09T19:46:35.215Z,100072.09
2018-05-09T19:49:04.121Z,100069.68
2018-05-09T19:51:32.264Z,100070.47
2018-05-09T19:54:00.380Z,100076.26
2018-05-09T19:56:28.531Z,100080.28
2018-05-09T19:58:56.709Z,100079.86
2018-05-09T20:01:24.855Z,100082.45
2018-05-09T20:03:52.974Z,100083.67
2018-05-09T20:06:21.097Z,100088.60
2018-05-09T20:08:49.228Z,100085.49
2018-05-09T20:11:17.380Z,100082.16
2018-05-09T20:13:45.528Z,100077.48
2018-05-09T20:16:14.888Z,100080.38
2018-05-09T20:18:43.022Z,100079.23
2018-05-09T20:21:11.433Z,100082.31
2018-05-09T20:23:40.855Z,100089.11
2018-05-09T20:26:09.060Z,100079.00
2018-05-09T20:28:46.194Z,100080.78
2018-05-09T20:31:32.139Z,100080.55
2018-05-09T20:34:00.256Z,100079.89
2018-05-09T20:36:28.417Z,100081.36
2018-05-09T20:38:57.901Z,100075.72
2018-05-09T20:41:26.081Z,100081.72
2018-05-09T20:43:54.186Z,100081.01
2018-05-09T20:46:22.330Z,100081.67
2018-05-09T20:48:50.474Z,100085.78
2018-05-09T20:51:34.054Z,100078.31
2018-05-09T20:54:02.209Z,100080.22
2018-05-09T20:56:30.350Z,100082.22
2018-05-09T20:58:58.543Z,100085.80
2018-05-09T21:01:38.395Z,100083.47
2018-05-09T21:04:06.518Z,100085.62
2018-05-09T21:06:34.635Z,100085.59
2018-05-09T21:09:02.847Z,100086.91
2018-05-09T21:11:31.165Z,100089.43
2018-05-09T21:13:59.297Z,100090.17
2018-05-09T21:16:27.422Z,100097.83
2018-05-09T21:18:56.469Z,100095.59
2018-05-09T21:21:28.183Z,100095.88
2018-05-09T21:23:56.334Z,100095.77
2018-05-09T21:26:24.481Z,100103.69
2018-05-09T21:28:52.895Z,100090.78
2018-05-09T21:31:22.035Z,100093.30
2018-05-09T21:33:50.421Z,100093.45
2018-05-09T21:36:18.607Z,100097.16
2018-05-09T21:38:46.727Z,100095.28
2018-05-09T21:41:14.883Z,100099.62
2018-05-09T21:43:43.134Z,100091.08
2018-05-09T21:46:11.316Z,100088.98
2018-05-09T21:48:39.532Z,100095.41
2018-05-09T21:51:07.657Z,100092.27
2018-05-09T21:53:35.785Z,100092.88
2018-05-09T21:56:04.085Z,100093.83
2018-05-09T21:58:32.115Z,100094.16
2018-05-09T22:01:00.237Z,100095.62
2018-05-09T22:03:28.463Z,100097.95
2018-05-09T22:05:56.593Z,100100.05
2018-05-09T22:08:24.721Z,100103.36
2018-05-09T22:10:53.049Z,100095.09
2018-05-09T22:13:21.011Z,100101.37
2018-05-09T22:15:49.137Z,100104.52
2018-05-09T22:18:17.295Z,100103.72
2018-05-09T22:20:45.426Z,100108.22
2018-05-09T22:23:13.572Z,100102.83
2018-05-09T22:25:41.907Z,100101.11
2018-05-09T22:28:10.060Z,100099.10
2018-05-09T22:30:38.177Z,100097.29
2018-05-09T22:33:06.321Z,100098.78
2018-05-09T22:35:34.461Z,100092.57
2018-05-09T22:38:02.591Z,100091.68
2018-05-09T22:40:30.755Z,100093.05
2018-05-09T22:42:58.859Z,100095.95
2018-05-09T22:45:27.001Z,100089.70
2018-05-09T22:47:55.193Z,100088.17
2018-05-09T22:50:23.418Z,100094.06
2018-05-09T22:52:51.528Z,100096.65
2018-05-09T22:55:19.669Z,100094.09
2018-05-09T22:57:47.809Z,100099.53
2018-05-09T23:00:15.925Z,100101.32
2018-05-09T23:02:44.051Z,100103.71
2018-05-09T23:05:12.167Z,100105.82
2018-05-09T23:07:40.285Z,100106.05
2018-05-09T23:10:08.451Z,100104.19
2018-05-09T23:12:36.542Z,100105.18
2018-05-09T23:15:04.654Z,100103.77
2018-05-09T23:17:32.818Z,100106.50
2018-05-09T23:20:00.906Z,100097.19
2018-05-09T23:22:29.019Z,100101.89
2018-05-09T23:24:57.378Z,100105.88
2018-05-09T23:27:25.521Z,100105.09
2018-05-09T23:29:53.659Z,100104.66
2018-05-09T23:32:21.978Z,100110.88
2018-05-09T23:34:50.083Z,100108.35
2018-05-09T23:37:18.209Z,100108.14
2018-05-09T23:39:46.363Z,100102.13
2018-05-09T23:42:14.471Z,100107.39
2018-05-09T23:44:42.601Z,100109.05
2018-05-09T23:47:10.740Z,100115.30
2018-05-09T23:49:38.889Z,100118.52
2018-05-09T23:52:07.076Z,100114.98
2018-05-09T23:54:35.145Z,100119.94
2018-05-09T23:57:03.272Z,100104.95
2018-05-09T23:59:31.383Z,100104.50
